• Join FlightAware (Why Join?)
  • Login
  • US Flag 
10:54AM EDT


 

Airport Tracker/Info


-or-


 

Live Flight TrackerFlight Track Log ✈ SWA3385 ✈ 10-May-2013 ✈ KLAX - KDEN

Flight Track Log - Related Links

Times and Time Zones

All times are in EDT time to prevent confusion due to time zone crossing. See the SWA3385 flight status page for this flight to view local times or setup timezone preferences in your user account.

Time Position Orientation Groundspeed Altitude Reporting Facility
EDT Latitude Longitude Course Direction KTS MPH feet Rate Location/Type
06:41PM 33.9500 -118.4833 54° Northeast 185 213 1,900  Level Southern California TRACON
06:42PM 33.9333 -118.5500 253° West 243 280 4,200 2,820 Climbing Southern California TRACON
06:43PM 33.8783 -118.5475 178° South 249 287 8,100 3,000 Climbing Los Angeles Center
06:44PM 33.9131 -118.4708 61° Northeast 266 306 10,800 2,460 Climbing Los Angeles Center
06:45PM 33.9631 -118.3814 56° Northeast 323 372 13,200 2,460 Climbing Los Angeles Center
06:46PM 34.2853 -117.7967 54° Northeast  Level FlightAware Approximate
06:46PM 34.0172 -118.2850 56° Northeast 342 394 16,000  Level Los Angeles Center
06:47PM 34.0750 -118.1825 56° Northeast 364 419 18,700 2,640 Climbing Los Angeles Center
06:48PM 34.1344 -118.0769 56° Northeast 377 434 21,500 2,580 Climbing Los Angeles Center
06:49PM 34.2100 -117.9442 55° Northeast 396 456 24,100 2,160 Climbing Los Angeles Center
06:50PM 34.2742 -117.8292 56° Northeast 412 474 26,000 1,800 Climbing Los Angeles Center
06:51PM 34.3403 -117.7097 56° Northeast 425 489 27,900 1,740 Climbing Los Angeles Center
06:52PM 34.4089 -117.5867 56° Northeast 435 501 29,700 2,100 Climbing Los Angeles Center
06:53PM 34.4781 -117.4689 55° Northeast 434 499 32,300 2,280 Climbing Los Angeles Center
06:54PM 34.5531 -117.3683 48° Northeast 414 476 34,500 1,740 Climbing Los Angeles Center
06:55PM 34.6383 -117.2456 50° Northeast 402 463 36,000 1,440 Climbing Los Angeles Center
06:56PM 34.7108 -117.1436 49° Northeast 402 463 37,500 1,200 Climbing Los Angeles Center
06:57PM 34.7814 -117.0433 49° Northeast 398 458 38,500 720 Climbing Los Angeles Center
06:58PM 34.8525 -116.9428 49° Northeast 396 456 39,000 240 Climbing Los Angeles Center
06:59PM 34.9233 -116.8414 50° Northeast 396 456 39,000  Level Los Angeles Center
07:00PM 35.0083 -116.7186 50° Northeast 397 457 39,000  Level Los Angeles Center
07:01PM 35.0811 -116.6167 49° Northeast 400 460 39,000  Level Los Angeles Center
07:03PM 35.1658 -116.4947 50° Northeast 397 457 39,000  Level Los Angeles Center
07:04PM 35.2378 -116.3933 49° Northeast 395 455 39,000  Level Los Angeles Center
07:05PM 35.3092 -116.2906 50° Northeast 396 456 39,000  Level Los Angeles Center
07:06PM 35.3933 -116.1658 50° Northeast 398 458 39,000  Level Los Angeles Center
07:07PM 35.4669 -116.0619 49° Northeast 402 463 39,000  Level Los Angeles Center
07:08PM 35.5400 -115.9561 50° Northeast 404 465 39,000  Level Los Angeles Center
07:09PM 35.6028 -115.8172 61° Northeast 410 472 39,000  Level Los Angeles Center
07:10PM 35.6531 -115.6903 64° Northeast 415 478 39,000  Level Los Angeles Center
07:11PM 35.7025 -115.5625 64° Northeast 414 476 39,000  Level Los Angeles Center
07:12PM 35.7531 -115.4356 64° Northeast 416 479 39,000  Level Los Angeles Center
07:13PM 35.8033 -115.3064 64° Northeast 419 482 39,000  Level Los Angeles Center
07:14PM 35.8603 -115.1550 65° Northeast 408 470 39,000  Level Los Angeles Center
07:15PM 35.9103 -115.0253 65° Northeast 418 481 39,000  Level Los Angeles Center
07:16PM 35.9603 -114.8958 64° Northeast 421 484 39,000  Level Los Angeles Center
07:17PM 36.0111 -114.7647 64° Northeast 423 487 39,000  Level Los Angeles Center
07:18PM 36.0600 -114.6350 65° Northeast 420 483 39,000  Level Los Angeles Center
07:19PM 36.1094 -114.5047 65° Northeast 420 483 39,000  Level Los Angeles Center
07:20PM 36.1681 -114.3489 65° Northeast 417 480 39,000  Level Los Angeles Center
07:21PM 36.2175 -114.2192 65° Northeast 417 480 39,000  Level Los Angeles Center
07:22PM 36.2653 -114.0881 66° East 420 483 39,000  Level Los Angeles Center
07:23PM 36.3144 -113.9581 65° Northeast 418 481 39,000  Level Los Angeles Center
07:24PM 36.3631 -113.8269 65° Northeast 420 483 39,000  Level Los Angeles Center
07:25PM 36.4219 -113.6697 65° Northeast 419 482 39,000  Level Los Angeles Center
07:26PM 36.4708 -113.5375 65° Northeast 421 484 39,000  Level Los Angeles Center
07:27PM 36.5150 -113.4219 65° Northeast 417 480 39,000  Level Los Angeles Center
07:28PM 36.5969 -113.2828 54° Northeast 416 479 39,000  Level Los Angeles Center
07:29PM 36.6633 -113.1667 54° Northeast 414 476 39,000  Level Los Angeles Center
07:30PM 36.7303 -113.0497 54° Northeast 416 479 39,000  Level Los Angeles Center
07:32PM 36.7989 -112.9303 54° Northeast 422 486 39,000  Level Los Angeles Center
07:33PM 36.8653 -112.8106 55° Northeast 423 487 39,000  Level Los Angeles Center
07:34PM 36.9456 -112.6667 55° Northeast 423 487 39,000  Level Los Angeles Center
07:35PM 37.0122 -112.5478 55° Northeast 422 486 39,000  Level Los Angeles Center
07:36PM 37.0794 -112.4286 55° Northeast 422 486 39,000  Level Los Angeles Center
07:37PM 37.1322 -112.2983 63° Northeast 426 490 39,000  Level Los Angeles Center
07:38PM 37.1747 -112.1617 69° East 426 490 39,000  Level Los Angeles Center
07:39PM 37.2242 -111.9964 69° East 424 488 39,000  Level Los Angeles Center
07:40PM 37.2667 -111.8594 69° East 423 487 39,000  Level Los Angeles Center
07:40PM 37.2758 -111.8311 68° East 423 487 39,000  Level Denver Center
07:41PM 37.3139 -111.6967 70° East 414 476 39,000  Level Denver Center
07:42PM 37.3558 -111.5586 69° East 424 488 39,000  Level Denver Center
07:43PM 37.4064 -111.3892 69° East 435 501 39,000  Level Denver Center
07:44PM 37.4478 -111.2447 70° East 440 506 39,000  Level Denver Center
07:45PM 37.4911 -111.0992 69° East 444 511 39,000  Level Denver Center
07:46PM 37.5325 -110.9558 70° East 439 505 39,000  Level Denver Center
07:47PM 37.5756 -110.8131 69° East 438 504 39,000  Level Denver Center
07:48PM 37.6153 -110.6722 70° East 430 495 39,000  Level Denver Center
07:49PM 37.6608 -110.5106 70° East 435 501 39,000  Level Denver Center
07:50PM 37.7006 -110.3711 70° East 440 506 39,000  Level Denver Center
07:51PM 37.7469 -110.2108 70° East 433 498 39,000  Level Denver Center
07:52PM 37.7839 -110.0792 70° East 419 482 39,000  Level Denver Center
07:53PM 37.8281 -109.9192 71° East 430 495 39,000  Level Denver Center
07:54PM 37.8669 -109.7806 70° East 435 501 39,000  Level Denver Center
07:56PM 37.9139 -109.6142 70° East 448 516 39,000  Level Denver Center
07:57PM 37.9519 -109.4719 71° East 445 512 39,000  Level Denver Center
07:58PM 37.9969 -109.3122 70° East 432 497 39,000  Level Denver Center
07:59PM 38.0458 -109.1792 65° Northeast 435 501 39,000  Level Denver Center
08:00PM 38.1014 -109.0328 64° Northeast 441 507 39,000  Level Denver Center
08:01PM 38.1514 -108.9017 64° Northeast 434 499 39,000  Level Denver Center
08:02PM 38.2100 -108.7481 64° Northeast 434 499 39,000  Level Denver Center
08:03PM 38.2589 -108.6117 65° Northeast 439 505 39,000  Level Denver Center
08:04PM 38.3094 -108.4533 68° East 434 499 39,000  Level Denver Center
08:05PM 38.3528 -108.3181 68° East 433 498 39,000  Level Denver Center
08:06PM 38.4033 -108.1603 68° East 433 498 39,000 -300 Level Denver Center
08:07PM 38.4458 -108.0236 68° East 436 502 38,400 -780 Descending Denver Center
08:08PM 38.4961 -107.8636 68° East 436 502 37,300 -1,020 Descending Denver Center
08:09PM 38.5525 -107.6842 68° East 429 494 36,100 -1,080 Descending Denver Center
08:10PM 38.5928 -107.5506 69° East 424 488 35,100 -960 Descending Denver Center
08:11PM 38.6328 -107.4197 69° East 416 479 34,200 -1,020 Descending Denver Center
08:12PM 38.6806 -107.2683 68° East 412 474 33,100 -600 Descending Denver Center
08:13PM 38.7175 -107.1417 69° East 413 475 33,000 -60 Descending Denver Center
08:14PM 38.7597 -107.0050 68° East 415 478 33,000  Level Denver Center
08:15PM 38.8086 -106.8406 69° East 414 476 33,000  Level Denver Center
08:16PM 38.8506 -106.7025 69° East 416 479 33,000  Level Denver Center
08:17PM 38.8900 -106.5672 69° East 413 475 33,000  Level Denver Center
08:18PM 38.9358 -106.4133 69° East 414 476 33,000 -60 Level Denver Center
08:19PM 38.9761 -106.2808 69° East 415 478 32,900 -960 Descending Denver Center
08:20PM 39.0117 -106.1558 70° East 406 467 31,100 -2,100 Descending Denver Center
08:22PM 39.0567 -106.0036 69° East 383 441 28,700 -2,100 Descending Denver Center
08:23PM 39.0919 -105.8803 70° East 370 426 26,800 -1,920 Descending Denver Center
08:24PM 39.1289 -105.7525 70° East 360 414 24,800 -1,860 Descending Denver Center
08:25PM 39.1628 -105.6331 70° East 368 423 23,000 -1,800 Descending Denver Center
08:26PM 39.1983 -105.5142 69° East 366 421 21,100 -1,980 Descending Denver Center
08:27PM 39.2358 -105.3817 70° East 345 397 19,000 -1,440 Descending Denver Center
08:28PM 39.2653 -105.2714 71° East 326 375 18,200 -1,020 Descending Denver Center
08:29PM 39.2853 -105.1594 77° East 300 345 17,000 -1,320 Descending Denver Center
08:30PM 39.3128 -105.0603 70° East 301 346 15,500 -1,620 Descending Denver Center
08:31PM 39.3592 -104.9756 55° Northeast 291 335 13,700 -1,980 Descending Denver Center
08:32PM 39.4139 -104.8881 51° Northeast 292 336 11,500 -1,860 Descending Denver Center
08:33PM 39.4844 -104.8331 31° Northeast 293 337 10,000 -1,020 Descending Denver Center
08:34PM 39.5506 -104.7797 32° Northeast 284 327 9,400 -540 Descending Denver Center
08:35PM 39.6211 -104.7242 31° Northeast 278 320 8,900 -720 Descending Denver Center
08:36PM 39.6792 -104.6792 31° Northeast 250 288 8,000 -900 Descending Denver Center
08:37PM 39.7442 -104.6619 12° North 223 257 7,100 -900 Descending Denver Center
08:38PM 39.7931 -104.6617 360° North 180 207 6,200 -840 Descending Denver Center
08:39PM 39.8331 -104.6606 North 161 185 5,400 -780 Descending Denver Center
08:41PM 39.8500 -104.6667 North  Level FlightAware Approximate
08:48PM 39.8617 -104.6732 North  Level Estimated
08:49PM 39.8617 -104.6732 North  Level Estimated